Terminal Aerodrome Forecast
Issued by NWS Greer, SC

Home | Current Version | Previous Version | Text Only | Print | Product List | Glossary On
Versions: 1 2 3 4 5 6 7 8 9 10 11 12 13 14
797
FTUS42 KGSP 181122
TAFGSP
TAF
KGSP 181122Z 1812/1912 VRB02KT P6SM BKN015
     FM181500 25004KT P6SM BKN025
     FM181600 24004KT P6SM BKN035
     FM190600 25004KT 6SM BR SCT250=

USA.gov is the U.S. government's official web portal to all federal, state and local government web resources and services.